sensor_id;sensor_type;location;lat;lon;timestamp;pressure;altitude;pressure_sealevel;temperature;humidity
38466;BME280;24244;51.950;5.902;2023-02-10T00:01:59;103466.44;;;3.01;74.30
38466;BME280;24244;51.950;5.902;2023-02-10T00:04:26;103466.44;;;3.01;74.39
38466;BME280;24244;51.950;5.902;2023-02-10T00:06:53;103465.53;;;3.02;74.41
38466;BME280;24244;51.950;5.902;2023-02-10T00:09:19;103473.34;;;3.03;74.32
38466;BME280;24244;51.950;5.902;2023-02-10T00:11:46;103473.41;;;3.02;74.29
38466;BME280;24244;51.950;5.902;2023-02-10T00:14:23;103469.06;;;3.01;74.72
38466;BME280;24244;51.950;5.902;2023-02-10T00:16:51;103462.91;;;3.02;74.26
38466;BME280;24244;51.950;5.902;2023-02-10T00:19:20;103462.91;;;3.02;74.73
38466;BME280;24244;51.950;5.902;2023-02-10T00:21:48;103471.56;;;3.04;74.43
38466;BME280;24244;51.950;5.902;2023-02-10T00:24:15;103468.03;;;3.05;74.64
38466;BME280;24244;51.950;5.902;2023-02-10T00:26:42;103474.03;;;3.07;74.27
38466;BME280;24244;51.950;5.902;2023-02-10T00:29:09;103480.09;;;3.09;74.43
38466;BME280;24244;51.950;5.902;2023-02-10T00:31:36;103471.28;;;3.10;74.33
38466;BME280;24244;51.950;5.902;2023-02-10T00:34:03;103473.00;;;3.11;74.68
38466;BME280;24244;51.950;5.902;2023-02-10T00:36:31;103482.47;;;3.13;74.43
38466;BME280;24244;51.950;5.902;2023-02-10T00:38:58;103485.97;;;3.14;74.87
38466;BME280;24244;51.950;5.902;2023-02-10T00:41:25;103483.28;;;3.15;74.29
38466;BME280;24244;51.950;5.902;2023-02-10T00:43:52;103487.63;;;3.17;74.92
38466;BME280;24244;51.950;5.902;2023-02-10T00:46:20;103491.88;;;3.19;74.39
38466;BME280;24244;51.950;5.902;2023-02-10T00:48:47;103484.91;;;3.18;74.83
38466;BME280;24244;51.950;5.902;2023-02-10T00:51:15;103486.63;;;3.19;74.96
38466;BME280;24244;51.950;5.902;2023-02-10T00:53:44;103488.31;;;3.20;74.74
38466;BME280;24244;51.950;5.902;2023-02-10T00:56:11;103482.22;;;3.20;75.00
38466;BME280;24244;51.950;5.902;2023-02-10T00:58:38;103482.28;;;3.18;75.15
38466;BME280;24244;51.950;5.902;2023-02-10T01:01:05;103479.66;;;3.18;74.61
38466;BME280;24244;51.950;5.902;2023-02-10T01:03:32;103491.03;;;3.19;74.96
38466;BME280;24244;51.950;5.902;2023-02-10T01:05:59;103487.53;;;3.18;75.41
38466;BME280;24244;51.950;5.902;2023-02-10T01:08:26;103491.88;;;3.19;75.38
38466;BME280;24244;51.950;5.902;2023-02-10T01:10:59;103501.53;;;3.19;75.54
38466;BME280;24244;51.950;5.902;2023-02-10T01:13:27;103493.66;;;3.19;75.43
38466;BME280;24244;51.950;5.902;2023-02-10T01:15:54;103498.06;;;3.18;75.58
38466;BME280;24244;51.950;5.902;2023-02-10T01:18:21;103506.69;;;3.20;75.22
38466;BME280;24244;51.950;5.902;2023-02-10T01:20:48;103502.41;;;3.19;75.60
38466;BME280;24244;51.950;5.902;2023-02-10T01:23:14;103510.19;;;3.21;75.27
38466;BME280;24244;51.950;5.902;2023-02-10T01:25:42;103517.22;;;3.20;75.66
38466;BME280;24244;51.950;5.902;2023-02-10T01:28:10;103516.28;;;3.21;75.48
38466;BME280;24244;51.950;5.902;2023-02-10T01:30:37;103511.91;;;3.22;75.67
38466;BME280;24244;51.950;5.902;2023-02-10T01:33:04;103508.34;;;3.23;75.76
38466;BME280;24244;51.950;5.902;2023-02-10T01:35:31;103501.31;;;3.23;75.75
38466;BME280;24244;51.950;5.902;2023-02-10T01:37:58;103496.84;;;3.25;75.98
38466;BME280;24244;51.950;5.902;2023-02-10T01:40:26;103509.13;;;3.25;75.59
38466;BME280;24244;51.950;5.902;2023-02-10T01:42:53;103498.69;;;3.23;75.56
38466;BME280;24244;51.950;5.902;2023-02-10T01:45:24;103502.25;;;3.22;75.92
38466;BME280;24244;51.950;5.902;2023-02-10T01:47:55;103497.91;;;3.21;76.01
38466;BME280;24244;51.950;5.902;2023-02-10T01:50:26;103490.94;;;3.20;76.15
38466;BME280;24244;51.950;5.902;2023-02-10T01:52:54;103496.13;;;3.22;76.15
38466;BME280;24244;51.950;5.902;2023-02-10T01:55:25;103496.97;;;3.22;75.98
38466;BME280;24244;51.950;5.902;2023-02-10T01:57:53;103494.41;;;3.21;75.87
38466;BME280;24244;51.950;5.902;2023-02-10T02:00:23;103500.53;;;3.21;76.23
38466;BME280;24244;51.950;5.902;2023-02-10T02:02:51;103494.41;;;3.21;76.11
38466;BME280;24244;51.950;5.902;2023-02-10T02:05:22;103502.31;;;3.21;75.83
38466;BME280;24244;51.950;5.902;2023-02-10T02:07:54;103506.81;;;3.19;76.17
38466;BME280;24244;51.950;5.902;2023-02-10T02:10:25;103503.25;;;3.20;76.32
38466;BME280;24244;51.950;5.902;2023-02-10T02:12:58;103504.88;;;3.22;76.26
38466;BME280;24244;51.950;5.902;2023-02-10T02:15:35;103506.56;;;3.23;76.48
38466;BME280;24244;51.950;5.902;2023-02-10T02:18:10;103511.97;;;3.20;76.38
38466;BME280;24244;51.950;5.902;2023-02-10T02:21:09;103513.75;;;3.20;76.15
38466;BME280;24244;51.950;5.902;2023-02-10T02:27:09;103514.13;;;3.12;76.54
38466;BME280;24244;51.950;5.902;2023-02-10T02:30:07;103517.50;;;3.14;76.41
38466;BME280;24244;51.950;5.902;2023-02-10T02:32:42;103503.50;;;3.13;76.58
38466;BME280;24244;51.950;5.902;2023-02-10T02:35:13;103509.72;;;3.12;76.36
38466;BME280;24244;51.950;5.902;2023-02-10T02:37:44;103510.63;;;3.11;76.29
38466;BME280;24244;51.950;5.902;2023-02-10T02:40:13;103508.00;;;3.11;76.32
38466;BME280;24244;51.950;5.902;2023-02-10T02:42:40;103503.59;;;3.12;76.20
38466;BME280;24244;51.950;5.902;2023-02-10T02:45:09;103511.56;;;3.10;76.86
38466;BME280;24244;51.950;5.902;2023-02-10T02:47:58;103513.31;;;3.10;76.65
38466;BME280;24244;51.950;5.902;2023-02-10T02:50:30;103511.63;;;3.09;76.53
38466;BME280;24244;51.950;5.902;2023-02-10T02:53:16;103506.34;;;3.09;76.48
38466;BME280;24244;51.950;5.902;2023-02-10T02:55:52;103509.06;;;3.07;76.27
38466;BME280;24244;51.950;5.902;2023-02-10T02:58:32;103510.97;;;3.04;76.64
38466;BME280;24244;51.950;5.902;2023-02-10T03:01:05;103517.22;;;3.01;76.61
38466;BME280;24244;51.950;5.902;2023-02-10T03:03:36;103521.78;;;2.98;76.75
38466;BME280;24244;51.950;5.902;2023-02-10T03:06:03;103527.09;;;2.96;76.48
38466;BME280;24244;51.950;5.902;2023-02-10T03:08:32;103521.91;;;2.95;76.67
38466;BME280;24244;51.950;5.902;2023-02-10T03:11:00;103522.03;;;2.92;77.04
38466;BME280;24244;51.950;5.902;2023-02-10T03:13:27;103524.81;;;2.89;76.34
38466;BME280;24244;51.950;5.902;2023-02-10T03:15:54;103523.16;;;2.86;77.04
38466;BME280;24244;51.950;5.902;2023-02-10T03:18:21;103523.22;;;2.85;76.75
38466;BME280;24244;51.950;5.902;2023-02-10T03:20:49;103521.66;;;2.81;76.74
38466;BME280;24244;51.950;5.902;2023-02-10T03:23:16;103533.16;;;2.78;76.84
38466;BME280;24244;51.950;5.902;2023-02-10T03:25:44;103530.72;;;2.73;76.62
38466;BME280;24244;51.950;5.902;2023-02-10T03:28:10;103530.09;;;2.68;76.79
38466;BME280;24244;51.950;5.902;2023-02-10T03:30:40;103528.44;;;2.66;76.84
38466;BME280;24244;51.950;5.902;2023-02-10T03:33:14;103530.41;;;2.61;76.82
38466;BME280;24244;51.950;5.902;2023-02-10T03:35:41;103526.16;;;2.58;76.95
38466;BME280;24244;51.950;5.902;2023-02-10T03:38:10;103526.19;;;2.57;77.05
38466;BME280;24244;51.950;5.902;2023-02-10T03:40:37;103529.03;;;2.52;76.58
38466;BME280;24244;51.950;5.902;2023-02-10T03:43:04;103532.63;;;2.50;77.02
38466;BME280;24244;51.950;5.902;2023-02-10T03:45:31;103531.06;;;2.46;76.76
38466;BME280;24244;51.950;5.902;2023-02-10T03:47:58;103535.59;;;2.42;76.95
38466;BME280;24244;51.950;5.902;2023-02-10T03:50:25;103538.31;;;2.41;77.05
38466;BME280;24244;51.950;5.902;2023-02-10T03:52:54;103533.19;;;2.38;76.83
38466;BME280;24244;51.950;5.902;2023-02-10T03:55:22;103533.38;;;2.33;76.78
38466;BME280;24244;51.950;5.902;2023-02-10T03:57:49;103529.16;;;2.29;77.03
38466;BME280;24244;51.950;5.902;2023-02-10T04:00:16;103535.41;;;2.26;77.05
38466;BME280;24244;51.950;5.902;2023-02-10T04:02:43;103528.50;;;2.24;77.04
38466;BME280;24244;51.950;5.902;2023-02-10T04:05:10;103527.78;;;2.20;76.82
38466;BME280;24244;51.950;5.902;2023-02-10T04:07:37;103529.69;;;2.17;77.14
38466;BME280;24244;51.950;5.902;2023-02-10T04:10:04;103526.31;;;2.13;76.90
38466;BME280;24244;51.950;5.902;2023-02-10T04:12:33;103528.94;;;2.13;76.84
38466;BME280;24244;51.950;5.902;2023-02-10T04:15:01;103532.56;;;2.11;76.64
38466;BME280;24244;51.950;5.902;2023-02-10T04:17:28;103537.00;;;2.09;76.25
38466;BME280;24244;51.950;5.902;2023-02-10T04:19:55;103533.72;;;2.04;76.75
38466;BME280;24244;51.950;5.902;2023-02-10T04:22:23;103530.31;;;2.02;76.79
38466;BME280;24244;51.950;5.902;2023-02-10T04:24:50;103540.00;;;2.00;76.45
38466;BME280;24244;51.950;5.902;2023-02-10T04:27:17;103540.09;;;1.98;77.08
38466;BME280;24244;51.950;5.902;2023-02-10T04:29:45;103541.06;;;1.95;76.62
38466;BME280;24244;51.950;5.902;2023-02-10T04:32:12;103543.78;;;1.92;76.61
38466;BME280;24244;51.950;5.902;2023-02-10T04:34:39;103543.03;;;1.90;76.60
38466;BME280;24244;51.950;5.902;2023-02-10T04:37:06;103537.88;;;1.87;76.34
38466;BME280;24244;51.950;5.902;2023-02-10T04:39:33;103538.03;;;1.84;76.52
38466;BME280;24244;51.950;5.902;2023-02-10T04:42:00;103544.19;;;1.83;76.40
38466;BME280;24244;51.950;5.902;2023-02-10T04:44:27;103548.63;;;1.81;76.61
38466;BME280;24244;51.950;5.902;2023-02-10T04:46:55;103548.72;;;1.78;76.38
38466;BME280;24244;51.950;5.902;2023-02-10T04:49:23;103551.44;;;1.77;76.41
38466;BME280;24244;51.950;5.902;2023-02-10T04:51:50;103554.13;;;1.75;76.41
38466;BME280;24244;51.950;5.902;2023-02-10T04:54:17;103554.22;;;1.72;76.92
38466;BME280;24244;51.950;5.902;2023-02-10T04:56:44;103552.50;;;1.71;76.63
38466;BME280;24244;51.950;5.902;2023-02-10T04:59:10;103565.72;;;1.70;76.89
38466;BME280;24244;51.950;5.902;2023-02-10T05:01:40;103563.13;;;1.68;76.32
38466;BME280;24244;51.950;5.902;2023-02-10T05:04:08;103567.53;;;1.68;76.25
38466;BME280;24244;51.950;5.902;2023-02-10T05:06:35;103562.34;;;1.66;76.56
38466;BME280;24244;51.950;5.902;2023-02-10T05:09:02;103561.44;;;1.67;76.95
38466;BME280;24244;51.950;5.902;2023-02-10T05:11:29;103563.19;;;1.67;76.94
38466;BME280;24244;51.950;5.902;2023-02-10T05:13:56;103564.97;;;1.66;76.47
38466;BME280;24244;51.950;5.902;2023-02-10T05:16:23;103563.25;;;1.65;76.41
38466;BME280;24244;51.950;5.902;2023-02-10T05:18:50;103558.00;;;1.65;76.48
38466;BME280;24244;51.950;5.902;2023-02-10T05:21:19;103555.44;;;1.64;76.31
38466;BME280;24244;51.950;5.902;2023-02-10T05:23:45;103562.63;;;1.58;76.21
38466;BME280;24244;51.950;5.902;2023-02-10T05:26:12;103555.75;;;1.56;76.39
38466;BME280;24244;51.950;5.902;2023-02-10T05:28:39;103556.66;;;1.55;76.47
38466;BME280;24244;51.950;5.902;2023-02-10T05:31:05;103555.91;;;1.51;76.82
38466;BME280;24244;51.950;5.902;2023-02-10T05:33:34;103558.59;;;1.50;76.22
38466;BME280;24244;51.950;5.902;2023-02-10T05:36:02;103550.88;;;1.47;76.86
38466;BME280;24244;51.950;5.902;2023-02-10T05:38:30;103555.31;;;1.45;76.19
38466;BME280;24244;51.950;5.902;2023-02-10T05:40:56;103562.31;;;1.44;76.61
38466;BME280;24244;51.950;5.902;2023-02-10T05:43:23;103562.34;;;1.43;76.74
38466;BME280;24244;51.950;5.902;2023-02-10T05:45:50;103564.13;;;1.42;76.28
38466;BME280;24244;51.950;5.902;2023-02-10T05:48:17;103562.34;;;1.43;76.65
38466;BME280;24244;51.950;5.902;2023-02-10T05:50:44;103560.69;;;1.42;76.04
38466;BME280;24244;51.950;5.902;2023-02-10T05:53:10;103566.03;;;1.39;76.44
38466;BME280;24244;51.950;5.902;2023-02-10T05:55:40;103567.84;;;1.37;76.28
38466;BME280;24244;51.950;5.902;2023-02-10T05:58:07;103563.50;;;1.36;76.40
38466;BME280;24244;51.950;5.902;2023-02-10T06:00:34;103563.59;;;1.34;76.64
38466;BME280;24244;51.950;5.902;2023-02-10T06:03:01;103561.88;;;1.33;76.83
38466;BME280;24244;51.950;5.902;2023-02-10T06:05:28;103564.53;;;1.32;76.59
38466;BME280;24244;51.950;5.902;2023-02-10T06:07:55;103557.63;;;1.29;76.34
38466;BME280;24244;51.950;5.902;2023-02-10T06:10:22;103563.88;;;1.27;76.51
38466;BME280;24244;51.950;5.902;2023-02-10T06:12:50;103563.91;;;1.25;76.53
38466;BME280;24244;51.950;5.902;2023-02-10T06:15:17;103551.72;;;1.24;76.22
38466;BME280;24244;51.950;5.902;2023-02-10T06:17:44;103551.00;;;1.21;76.15
38466;BME280;24244;51.950;5.902;2023-02-10T06:20:11;103551.97;;;1.18;76.62
38466;BME280;24244;51.950;5.902;2023-02-10T06:22:38;103552.81;;;1.18;76.60
38466;BME280;24244;51.950;5.902;2023-02-10T06:25:05;103558.06;;;1.18;76.77
38466;BME280;24244;51.950;5.902;2023-02-10T06:27:32;103552.91;;;1.15;76.19
38466;BME280;24244;51.950;5.902;2023-02-10T06:30:00;103555.53;;;1.15;76.39
38466;BME280;24244;51.950;5.902;2023-02-10T06:32:28;103560.00;;;1.13;76.97
38466;BME280;24244;51.950;5.902;2023-02-10T06:34:55;103558.22;;;1.14;76.25
38466;BME280;24244;51.950;5.902;2023-02-10T06:37:22;103560.81;;;1.14;76.43
38466;BME280;24244;51.950;5.902;2023-02-10T06:39:52;103557.38;;;1.13;76.35
38466;BME280;24244;51.950;5.902;2023-02-10T06:42:18;103560.81;;;1.14;76.34
38466;BME280;24244;51.950;5.902;2023-02-10T06:44:45;103567.00;;;1.13;76.24
38466;BME280;24244;51.950;5.902;2023-02-10T06:47:15;103565.28;;;1.12;76.83
38466;BME280;24244;51.950;5.902;2023-02-10T06:49:41;103570.53;;;1.12;76.88
38466;BME280;24244;51.950;5.902;2023-02-10T06:52:08;103574.97;;;1.10;76.61
38466;BME280;24244;51.950;5.902;2023-02-10T06:54:43;103582.00;;;1.08;76.41
38466;BME280;24244;51.950;5.902;2023-02-10T06:57:12;103582.91;;;1.07;76.31
38466;BME280;24244;51.950;5.902;2023-02-10T06:59:39;103583.78;;;1.07;76.70
38466;BME280;24244;51.950;5.902;2023-02-10T07:02:05;103582.88;;;1.08;76.95
38466;BME280;24244;51.950;5.902;2023-02-10T07:04:38;103574.09;;;1.09;76.94
38466;BME280;24244;51.950;5.902;2023-02-10T07:07:05;103584.56;;;1.09;77.03
38466;BME280;24244;51.950;5.902;2023-02-10T07:09:32;103582.78;;;1.11;76.69
38466;BME280;24244;51.950;5.902;2023-02-10T07:11:59;103587.09;;;1.12;76.66
38466;BME280;24244;51.950;5.902;2023-02-10T07:14:26;103588.81;;;1.13;76.86
38466;BME280;24244;51.950;5.902;2023-02-10T07:16:53;103593.06;;;1.16;76.88
38466;BME280;24244;51.950;5.902;2023-02-10T07:19:20;103593.06;;;1.16;76.63
38466;BME280;24244;51.950;5.902;2023-02-10T07:21:48;103594.72;;;1.18;76.96
38466;BME280;24244;51.950;5.902;2023-02-10T07:24:16;103592.97;;;1.19;76.63
38466;BME280;24244;51.950;5.902;2023-02-10T07:26:43;103591.97;;;1.22;77.19
38466;BME280;24244;51.950;5.902;2023-02-10T07:29:10;103583.16;;;1.24;76.48
38466;BME280;24244;51.950;5.902;2023-02-10T07:31:37;103585.75;;;1.26;76.99
38466;BME280;24244;51.950;5.902;2023-02-10T07:34:04;103590.00;;;1.28;77.16
38466;BME280;24244;51.950;5.902;2023-02-10T07:36:31;103598.59;;;1.32;76.98
38466;BME280;24244;51.950;5.902;2023-02-10T07:39:02;103600.19;;;1.36;77.08
38466;BME280;24244;51.950;5.902;2023-02-10T07:41:29;103598.38;;;1.38;77.71
38466;BME280;24244;51.950;5.902;2023-02-10T07:43:58;103600.00;;;1.42;76.91
38466;BME280;24244;51.950;5.902;2023-02-10T07:46:25;103601.56;;;1.46;77.33
38466;BME280;24244;51.950;5.902;2023-02-10T07:48:52;103603.22;;;1.48;77.65
38466;BME280;24244;51.950;5.902;2023-02-10T07:51:18;103608.28;;;1.53;77.15
38466;BME280;24244;51.950;5.902;2023-02-10T07:53:45;103597.75;;;1.54;77.17
38466;BME280;24244;51.950;5.902;2023-02-10T07:56:13;103606.34;;;1.58;76.98
38466;BME280;24244;51.950;5.902;2023-02-10T07:58:40;103614.09;;;1.61;77.35
38466;BME280;24244;51.950;5.902;2023-02-10T08:01:08;103623.59;;;1.64;77.25
38466;BME280;24244;51.950;5.902;2023-02-10T08:03:35;103624.34;;;1.67;77.77
38466;BME280;24244;51.950;5.902;2023-02-10T08:06:02;103633.78;;;1.71;77.72
38466;BME280;24244;51.950;5.902;2023-02-10T08:08:29;103635.44;;;1.74;77.63
38466;BME280;24244;51.950;5.902;2023-02-10T08:10:56;103635.25;;;1.78;77.84
38466;BME280;24244;51.950;5.902;2023-02-10T08:13:24;103637.72;;;1.83;77.86
38466;BME280;24244;51.950;5.902;2023-02-10T08:15:51;103641.97;;;1.85;77.73
38466;BME280;24244;51.950;5.902;2023-02-10T08:18:18;103651.50;;;1.88;78.11
38466;BME280;24244;51.950;5.902;2023-02-10T08:20:45;103658.41;;;1.90;77.90
38466;BME280;24244;51.950;5.902;2023-02-10T08:23:14;103660.00;;;1.94;77.98
38466;BME280;24244;51.950;5.902;2023-02-10T08:25:41;103660.75;;;1.98;77.78
38466;BME280;24244;51.950;5.902;2023-02-10T08:28:08;103667.63;;;2.01;77.85
38466;BME280;24244;51.950;5.902;2023-02-10T08:30:38;103668.44;;;2.03;77.91
38466;BME280;24244;51.950;5.902;2023-02-10T08:33:05;103666.53;;;2.06;77.95
38466;BME280;24244;51.950;5.902;2023-02-10T08:35:31;103663.91;;;2.06;78.40
38466;BME280;24244;51.950;5.902;2023-02-10T08:37:58;103651.59;;;2.08;77.99
38466;BME280;24244;51.950;5.902;2023-02-10T08:40:25;103647.19;;;2.09;78.28
38466;BME280;24244;51.950;5.902;2023-02-10T08:42:52;103648.84;;;2.11;78.49
38466;BME280;24244;51.950;5.902;2023-02-10T08:45:19;103641.84;;;2.12;78.25
38466;BME280;24244;51.950;5.902;2023-02-10T08:47:47;103646.09;;;2.14;78.55
38466;BME280;24244;51.950;5.902;2023-02-10T08:50:14;103647.81;;;2.15;78.46
38466;BME280;24244;51.950;5.902;2023-02-10T08:52:41;103657.34;;;2.18;78.61
38466;BME280;24244;51.950;5.902;2023-02-10T08:55:11;103639.84;;;2.18;78.54
38466;BME280;24244;51.950;5.902;2023-02-10T08:57:38;103642.31;;;2.21;78.66
38466;BME280;24244;51.950;5.902;2023-02-10T09:00:07;103643.06;;;2.25;78.46
38466;BME280;24244;51.950;5.902;2023-02-10T09:02:34;103642.88;;;2.29;78.75
38466;BME280;24244;51.950;5.902;2023-02-10T09:05:02;103647.16;;;2.32;78.83
38466;BME280;24244;51.950;5.902;2023-02-10T09:07:36;103659.16;;;2.38;78.61
38466;BME280;24244;51.950;5.902;2023-02-10T09:10:04;103649.41;;;2.41;78.62
38466;BME280;24244;51.950;5.902;2023-02-10T09:12:31;103650.13;;;2.45;78.43
38466;BME280;24244;51.950;5.902;2023-02-10T09:14:58;103656.13;;;2.48;78.41
38466;BME280;24244;51.950;5.902;2023-02-10T09:17:25;103653.28;;;2.53;78.85
38466;BME280;24244;51.950;5.902;2023-02-10T09:19:52;103662.81;;;2.55;78.67
38466;BME280;24244;51.950;5.902;2023-02-10T09:22:21;103657.38;;;2.60;78.68
38466;BME280;24244;51.950;5.902;2023-02-10T09:24:48;103658.94;;;2.64;78.71
38466;BME280;24244;51.950;5.902;2023-02-10T09:27:17;103661.38;;;2.68;78.50
38466;BME280;24244;51.950;5.902;2023-02-10T09:29:45;103669.13;;;2.71;78.46
38466;BME280;24244;51.950;5.902;2023-02-10T09:32:11;103668.88;;;2.78;78.40
38466;BME280;24244;51.950;5.902;2023-02-10T09:34:38;103660.88;;;2.81;78.56
38466;BME280;24244;51.950;5.902;2023-02-10T09:37:07;103650.25;;;2.84;78.71
38466;BME280;24244;51.950;5.902;2023-02-10T09:39:36;103652.72;;;2.87;78.67
38466;BME280;24244;51.950;5.902;2023-02-10T09:42:09;103653.47;;;2.90;79.11
38466;BME280;24244;51.950;5.902;2023-02-10T09:44:45;103648.00;;;2.95;79.08
38466;BME280;24244;51.950;5.902;2023-02-10T09:47:31;103655.75;;;2.98;79.15
38466;BME280;24244;51.950;5.902;2023-02-10T09:50:08;103661.66;;;3.03;78.91
38466;BME280;24244;51.950;5.902;2023-02-10T09:52:48;103655.34;;;3.07;78.80
38466;BME280;24244;51.950;5.902;2023-02-10T09:55:25;103659.63;;;3.09;79.10
38466;BME280;24244;51.950;5.902;2023-02-10T09:57:57;103668.16;;;3.14;79.06
38466;BME280;24244;51.950;5.902;2023-02-10T10:00:28;103667.97;;;3.19;78.92
38466;BME280;24244;51.950;5.902;2023-02-10T10:03:00;103665.19;;;3.22;79.22
38466;BME280;24244;51.950;5.902;2023-02-10T10:05:38;103665.00;;;3.27;78.85
38466;BME280;24244;51.950;5.902;2023-02-10T10:08:18;103670.84;;;3.33;79.08
38466;BME280;24244;51.950;5.902;2023-02-10T10:10:53;103675.84;;;3.39;78.94
38466;BME280;24244;51.950;5.902;2023-02-10T10:13:25;103677.25;;;3.46;78.76
38466;BME280;24244;51.950;5.902;2023-02-10T10:16:13;103667.44;;;3.50;79.22
38466;BME280;24244;51.950;5.902;2023-02-10T10:18:50;103667.16;;;3.56;79.03
38466;BME280;24244;51.950;5.902;2023-02-10T10:21:26;103655.66;;;3.59;79.24
38466;BME280;24244;51.950;5.902;2023-02-10T10:24:05;103656.31;;;3.64;79.40
38466;BME280;24244;51.950;5.902;2023-02-10T10:26:47;103664.84;;;3.69;79.09
38466;BME280;24244;51.950;5.902;2023-02-10T10:29:23;103657.59;;;3.74;79.05
38466;BME280;24244;51.950;5.902;2023-02-10T10:31:58;103656.50;;;3.78;78.74
38466;BME280;24244;51.950;5.902;2023-02-10T10:34:36;103660.66;;;3.83;78.88
38466;BME280;24244;51.950;5.902;2023-02-10T10:37:11;103660.44;;;3.88;78.55
38466;BME280;24244;51.950;5.902;2023-02-10T10:39:42;103656.72;;;3.92;78.45
38466;BME280;24244;51.950;5.902;2023-02-10T10:42:18;103653.81;;;3.98;78.83
38466;BME280;24244;51.950;5.902;2023-02-10T10:44:48;103647.50;;;4.02;78.69
38466;BME280;24244;51.950;5.902;2023-02-10T10:47:23;103642.91;;;4.06;78.36
38466;BME280;24244;51.950;5.902;2023-02-10T10:49:53;103643.56;;;4.11;78.62
38466;BME280;24244;51.950;5.902;2023-02-10T10:52:26;103631.88;;;4.16;78.58
38466;BME280;24244;51.950;5.902;2023-02-10T10:54:54;103628.25;;;4.19;78.92
38466;BME280;24244;51.950;5.902;2023-02-10T10:57:23;103632.38;;;4.24;78.83
38466;BME280;24244;51.950;5.902;2023-02-10T10:59:54;103630.34;;;4.29;78.68
38466;BME280;24244;51.950;5.902;2023-02-10T11:02:24;103616.97;;;4.34;78.71
38466;BME280;24244;51.950;5.902;2023-02-10T11:05:04;103637.66;;;4.42;78.92
38466;BME280;24244;51.950;5.902;2023-02-10T11:07:48;103632.06;;;4.48;78.48
38466;BME280;24244;51.950;5.902;2023-02-10T11:10:22;103631.84;;;4.52;78.57
38466;BME280;24244;51.950;5.902;2023-02-10T11:12:53;103631.56;;;4.58;78.59
38466;BME280;24244;51.950;5.902;2023-02-10T11:15:31;103634.72;;;4.65;78.64
38466;BME280;24244;51.950;5.902;2023-02-10T11:18:00;103621.31;;;4.69;78.64
38466;BME280;24244;51.950;5.902;2023-02-10T11:20:30;103625.44;;;4.75;78.46
38466;BME280;24244;51.950;5.902;2023-02-10T11:23:00;103619.94;;;4.80;78.44
38466;BME280;24244;51.950;5.902;2023-02-10T11:25:30;103623.94;;;4.87;78.46
38466;BME280;24244;51.950;5.902;2023-02-10T11:27:59;103613.94;;;4.93;78.34
38466;BME280;24244;51.950;5.902;2023-02-10T11:30:29;103612.75;;;4.99;78.39
38466;BME280;24244;51.950;5.902;2023-02-10T11:32:58;103613.41;;;5.04;78.33
38466;BME280;24244;51.950;5.902;2023-02-10T11:35:27;103601.66;;;5.09;78.34
38466;BME280;24244;51.950;5.902;2023-02-10T11:37:56;103600.50;;;5.15;78.25
38466;BME280;24244;51.950;5.902;2023-02-10T11:40:26;103582.63;;;5.20;78.44
38466;BME280;24244;51.950;5.902;2023-02-10T11:42:56;103593.69;;;5.27;78.32
38466;BME280;24244;51.950;5.902;2023-02-10T11:45:27;103592.44;;;5.34;78.34
38466;BME280;24244;51.950;5.902;2023-02-10T11:48:02;103592.13;;;5.40;78.22
38466;BME280;24244;51.950;5.902;2023-02-10T11:50:31;103588.31;;;5.45;78.09
38466;BME280;24244;51.950;5.902;2023-02-10T11:52:58;103582.69;;;5.51;78.26
38466;BME280;24244;51.950;5.902;2023-02-10T11:55:33;103573.50;;;5.59;77.94
38466;BME280;24244;51.950;5.902;2023-02-10T11:58:20;103569.50;;;5.67;77.90
38466;BME280;24244;51.950;5.902;2023-02-10T12:01:17;103573.50;;;5.74;77.88
38466;BME280;24244;51.950;5.902;2023-02-10T12:04:00;103557.31;;;5.80;77.82
38466;BME280;24244;51.950;5.902;2023-02-10T12:06:33;103556.97;;;5.86;77.71
38466;BME280;24244;51.950;5.902;2023-02-10T12:09:11;103563.63;;;5.94;78.07
38466;BME280;24244;51.950;5.902;2023-02-10T12:11:47;103559.78;;;5.99;77.59
38466;BME280;24244;51.950;5.902;2023-02-10T12:14:31;103560.19;;;6.07;77.64
38466;BME280;24244;51.950;5.902;2023-02-10T12:17:20;103565.97;;;6.14;77.56
38466;BME280;24244;51.950;5.902;2023-02-10T12:19:59;103568.25;;;6.20;77.44
38466;BME280;24244;51.950;5.902;2023-02-10T12:22:35;103567.81;;;6.27;77.13
38466;BME280;24244;51.950;5.902;2023-02-10T12:25:14;103567.44;;;6.34;77.07
38466;BME280;24244;51.950;5.902;2023-02-10T12:27:49;103561.00;;;6.39;76.93
38466;BME280;24244;51.950;5.902;2023-02-10T12:30:33;103565.91;;;6.45;76.79
38466;BME280;24244;51.950;5.902;2023-02-10T12:33:21;103559.41;;;6.51;76.86
38466;BME280;24244;51.950;5.902;2023-02-10T12:35:55;103566.88;;;6.58;76.60
38466;BME280;24244;51.950;5.902;2023-02-10T12:38:35;103556.78;;;6.65;76.55
38466;BME280;24244;51.950;5.902;2023-02-10T12:41:12;103563.50;;;6.71;76.49
38466;BME280;24244;51.950;5.902;2023-02-10T12:43:58;103554.31;;;6.76;76.43
38466;BME280;24244;51.950;5.902;2023-02-10T12:46:33;103543.38;;;6.82;76.18
38466;BME280;24244;51.950;5.902;2023-02-10T12:49:33;103533.31;;;6.89;76.14
38466;BME280;24244;51.950;5.902;2023-02-10T12:52:07;103539.06;;;6.95;76.06
38466;BME280;24244;51.950;5.902;2023-02-10T12:54:43;103537.84;;;7.01;75.74
38466;BME280;24244;51.950;5.902;2023-02-10T12:57:18;103528.66;;;7.06;75.50
38466;BME280;24244;51.950;5.902;2023-02-10T12:59:51;103525.63;;;7.13;75.53
38466;BME280;24244;51.950;5.902;2023-02-10T13:02:24;103519.00;;;7.20;75.43
38466;BME280;24244;51.950;5.902;2023-02-10T13:04:55;103521.25;;;7.26;75.44
38466;BME280;24244;51.950;5.902;2023-02-10T13:07:30;103511.13;;;7.32;75.22
38466;BME280;24244;51.950;5.902;2023-02-10T13:10:06;103512.56;;;7.38;74.93
38466;BME280;24244;51.950;5.902;2023-02-10T13:12:39;103511.22;;;7.45;74.79
38466;BME280;24244;51.950;5.902;2023-02-10T13:15:12;103505.63;;;7.50;74.54
38466;BME280;24244;51.950;5.902;2023-02-10T13:17:43;103517.50;;;7.57;74.51
38466;BME280;24244;51.950;5.902;2023-02-10T13:20:26;103509.19;;;7.63;74.14